createdAt,value
2018-04-08T00:01:03.983Z,9.93
2018-04-08T00:03:54.231Z,9.92
2018-04-08T00:06:22.563Z,9.91
2018-04-08T00:08:50.898Z,10.26
2018-04-08T00:11:19.259Z,10.16
2018-04-08T00:13:47.656Z,9.95
2018-04-08T00:16:15.978Z,9.88
2018-04-08T00:18:44.388Z,9.88
2018-04-08T00:21:12.800Z,9.84
2018-04-08T00:23:41.158Z,9.65
2018-04-08T00:26:09.475Z,9.87
2018-04-08T00:28:37.888Z,9.87
2018-04-08T00:31:06.207Z,9.94
2018-04-08T00:33:34.574Z,9.82
2018-04-08T00:36:02.950Z,9.75
2018-04-08T00:38:31.339Z,9.78
2018-04-08T00:40:59.703Z,9.62
2018-04-08T00:43:28.199Z,9.56
2018-04-08T00:45:56.580Z,9.28
2018-04-08T00:48:24.929Z,9.14
2018-04-08T00:50:53.320Z,9.14
2018-04-08T00:53:21.640Z,9.16
2018-04-08T00:55:49.980Z,9.38
2018-04-08T00:58:18.310Z,9.32
2018-04-08T01:00:46.774Z,9.31
2018-04-08T01:03:15.082Z,9.21
2018-04-08T01:05:43.434Z,9.16
2018-04-08T01:08:11.773Z,9.15
2018-04-08T01:10:40.156Z,9.19
2018-04-08T01:13:08.495Z,9.22
2018-04-08T01:15:36.818Z,8.88
2018-04-08T01:18:05.135Z,9.01
2018-04-08T01:20:33.499Z,9.12
2018-04-08T01:23:01.813Z,8.96
2018-04-08T01:25:30.134Z,9.04
2018-04-08T01:27:58.484Z,8.91
2018-04-08T01:30:26.992Z,8.96
2018-04-08T01:32:55.450Z,8.97
2018-04-08T01:35:24.750Z,9.02
2018-04-08T01:37:53.102Z,8.98
2018-04-08T01:40:21.514Z,8.87
2018-04-08T01:42:49.978Z,8.68
2018-04-08T01:45:18.334Z,8.78
2018-04-08T01:47:46.692Z,8.71
2018-04-08T01:50:15.018Z,8.84
2018-04-08T01:52:43.397Z,8.87
2018-04-08T01:55:11.734Z,8.77
2018-04-08T01:57:40.172Z,8.74
2018-04-08T02:00:08.499Z,8.63
2018-04-08T02:02:36.921Z,8.64
2018-04-08T02:05:05.253Z,8.41
2018-04-08T02:07:33.666Z,8.44
2018-04-08T02:10:02.765Z,8.27
2018-04-08T02:12:31.134Z,8.05
2018-04-08T02:14:59.470Z,7.84
2018-04-08T02:17:27.782Z,7.95
2018-04-08T02:19:56.171Z,8.26
2018-04-08T02:22:24.551Z,8.22
2018-04-08T02:24:52.898Z,8.22
2018-04-08T02:27:21.244Z,8.17
2018-04-08T02:29:49.694Z,7.96
2018-04-08T02:32:18.067Z,8.12
2018-04-08T02:34:46.446Z,8.23
2018-04-08T02:37:14.776Z,8.05
2018-04-08T02:39:43.141Z,8.07
2018-04-08T02:42:11.465Z,8.16
2018-04-08T02:44:39.829Z,8.10
2018-04-08T02:47:08.148Z,8.11
2018-04-08T02:49:36.492Z,7.72
2018-04-08T02:52:04.825Z,7.75
2018-04-08T02:54:33.170Z,7.69
2018-04-08T02:57:01.493Z,7.58
2018-04-08T02:59:29.839Z,7.64
2018-04-08T03:01:58.187Z,7.72
2018-04-08T03:04:26.527Z,7.62
2018-04-08T03:06:54.852Z,7.66
2018-04-08T03:09:23.208Z,7.65
2018-04-08T03:11:51.537Z,7.90
2018-04-08T03:14:19.882Z,7.83
2018-04-08T03:16:48.209Z,7.64
2018-04-08T03:19:16.547Z,7.63
2018-04-08T03:21:44.893Z,7.46
2018-04-08T03:24:13.239Z,7.53
2018-04-08T03:26:41.590Z,7.54
2018-04-08T03:29:09.954Z,7.52
2018-04-08T03:31:38.276Z,7.51
2018-04-08T03:34:06.646Z,7.47
2018-04-08T03:36:34.987Z,7.41
2018-04-08T03:39:03.314Z,7.50
2018-04-08T03:41:31.739Z,7.42
2018-04-08T03:44:00.067Z,7.43
2018-04-08T03:46:28.412Z,7.12
2018-04-08T03:48:56.894Z,7.13
2018-04-08T03:51:25.230Z,7.25
2018-04-08T03:53:53.550Z,7.38
2018-04-08T03:56:21.890Z,7.33
2018-04-08T03:58:50.227Z,7.33
2018-04-08T04:01:18.570Z,7.31
2018-04-08T04:03:46.893Z,7.28
2018-04-08T04:06:15.235Z,7.24
2018-04-08T04:08:43.561Z,7.17
2018-04-08T04:11:11.896Z,7.18
2018-04-08T04:13:40.235Z,7.14
2018-04-08T04:16:08.591Z,7.02
2018-04-08T04:18:48.773Z,7.10
2018-04-08T04:21:28.962Z,7.01
2018-04-08T04:24:09.409Z,7.01
2018-04-08T04:26:37.878Z,7.08
2018-04-08T04:29:06.223Z,7.09
2018-04-08T04:31:34.579Z,6.96
2018-04-08T04:34:02.901Z,6.85
2018-04-08T04:36:31.270Z,6.86
2018-04-08T04:38:59.647Z,6.87
2018-04-08T04:41:28.047Z,6.91
2018-04-08T04:43:56.422Z,6.91
2018-04-08T04:46:24.755Z,6.72
2018-04-08T04:48:53.094Z,6.84
2018-04-08T04:51:21.430Z,6.41
2018-04-08T04:53:50.136Z,6.61
2018-04-08T04:56:18.470Z,6.73
2018-04-08T04:58:46.829Z,6.72
2018-04-08T05:01:15.149Z,6.70
2018-04-08T05:03:43.499Z,6.59
2018-04-08T05:06:11.838Z,6.51
2018-04-08T05:08:40.206Z,6.73
2018-04-08T05:11:08.528Z,6.72
2018-04-08T05:13:36.950Z,6.62
2018-04-08T05:16:05.287Z,6.75
2018-04-08T05:18:33.643Z,6.80
2018-04-08T05:21:01.973Z,6.93
2018-04-08T05:23:30.306Z,7.03
2018-04-08T05:25:58.654Z,7.10
2018-04-08T05:28:26.986Z,7.27
2018-04-08T05:30:55.324Z,7.32
2018-04-08T05:33:23.674Z,7.38
2018-04-08T05:35:51.999Z,7.20
2018-04-08T05:38:20.318Z,7.10
2018-04-08T05:40:48.665Z,6.84
2018-04-08T05:43:17.000Z,6.77
2018-04-08T05:45:45.334Z,7.08
2018-04-08T05:48:13.664Z,7.37
2018-04-08T05:50:42.231Z,7.54
2018-04-08T05:53:10.618Z,7.58
2018-04-08T05:55:39.404Z,7.65
2018-04-08T05:58:07.869Z,7.64
2018-04-08T06:00:36.182Z,7.87
2018-04-08T06:03:04.508Z,7.89
2018-04-08T06:05:32.858Z,7.94
2018-04-08T06:08:01.174Z,8.03
2018-04-08T06:10:29.602Z,7.76
2018-04-08T06:12:57.898Z,7.93
2018-04-08T06:15:26.318Z,7.77
2018-04-08T06:17:54.650Z,7.94
2018-04-08T06:20:23.118Z,8.11
2018-04-08T06:22:51.430Z,8.07
2018-04-08T06:25:19.773Z,8.18
2018-04-08T06:27:48.081Z,8.24
2018-04-08T06:30:16.423Z,8.20
2018-04-08T06:32:44.739Z,8.16
2018-04-08T06:35:13.086Z,8.24
2018-04-08T06:37:41.463Z,8.34
2018-04-08T06:40:09.778Z,8.31
2018-04-08T06:42:38.135Z,8.36
2018-04-08T06:45:06.542Z,8.37
2018-04-08T06:47:35.887Z,8.55
2018-04-08T06:50:04.239Z,8.66
2018-04-08T06:52:32.610Z,8.75
2018-04-08T06:55:01.000Z,8.84
2018-04-08T06:57:29.346Z,8.96
2018-04-08T06:59:57.661Z,8.93
2018-04-08T07:02:26.062Z,8.97
2018-04-08T07:04:54.366Z,9.03
2018-04-08T07:07:22.813Z,9.05
2018-04-08T07:09:51.119Z,9.14
2018-04-08T07:12:19.467Z,9.11
2018-04-08T07:14:47.778Z,9.32
2018-04-08T07:17:16.119Z,9.35
2018-04-08T07:19:44.447Z,9.43
2018-04-08T07:22:12.782Z,9.47
2018-04-08T07:24:41.149Z,9.56
2018-04-08T07:27:09.455Z,9.65
2018-04-08T07:29:37.778Z,9.60
2018-04-08T07:32:06.136Z,9.53
2018-04-08T07:34:34.530Z,9.75
2018-04-08T07:37:02.898Z,9.84
2018-04-08T07:39:31.323Z,9.88
2018-04-08T07:41:59.621Z,9.94
2018-04-08T07:44:27.977Z,10.11
2018-04-08T07:46:56.316Z,10.13
2018-04-08T07:49:24.665Z,10.18
2018-04-08T07:51:52.999Z,10.29
2018-04-08T07:54:21.353Z,10.33
2018-04-08T07:56:49.689Z,10.44
2018-04-08T07:59:18.099Z,10.52
2018-04-08T08:01:46.910Z,10.63
2018-04-08T08:04:15.278Z,10.71
2018-04-08T08:06:43.647Z,10.75
2018-04-08T08:09:12.010Z,10.89
2018-04-08T08:11:40.405Z,11.01
2018-04-08T08:14:08.764Z,11.06
2018-04-08T08:16:37.097Z,11.08
2018-04-08T08:19:05.442Z,11.18
2018-04-08T08:21:33.765Z,11.21
2018-04-08T08:24:02.115Z,11.34
2018-04-08T08:26:30.484Z,11.48
2018-04-08T08:28:58.846Z,11.48
2018-04-08T08:31:27.188Z,11.62
2018-04-08T08:33:55.605Z,11.63
2018-04-08T08:36:23.959Z,11.62
2018-04-08T08:38:52.331Z,11.79
2018-04-08T08:41:20.750Z,11.81
2018-04-08T08:43:49.187Z,11.91
2018-04-08T08:46:17.614Z,12.27
2018-04-08T08:48:45.958Z,12.10
2018-04-08T08:51:14.302Z,12.19
2018-04-08T08:53:42.664Z,12.40
2018-04-08T08:56:11.018Z,12.53
2018-04-08T08:58:39.430Z,12.66
2018-04-08T09:01:07.781Z,13.03
2018-04-08T09:03:36.591Z,13.31
2018-04-08T09:06:04.939Z,13.26
2018-04-08T09:08:33.317Z,13.13
2018-04-08T09:11:01.653Z,13.20
2018-04-08T09:13:29.967Z,13.40
2018-04-08T09:15:58.319Z,13.52
2018-04-08T09:18:26.718Z,13.46
2018-04-08T09:24:05.853Z,13.91
2018-04-08T09:26:34.180Z,14.27
2018-04-08T09:29:02.532Z,13.85
2018-04-08T09:31:30.858Z,13.92
2018-04-08T09:33:59.214Z,14.16
2018-04-08T09:36:27.603Z,14.14
2018-04-08T09:38:55.944Z,14.27
2018-04-08T09:41:24.334Z,14.39
2018-04-08T09:43:52.686Z,14.38
2018-04-08T09:46:21.030Z,14.49
2018-04-08T09:48:49.380Z,14.28
2018-04-08T09:51:17.754Z,14.57
2018-04-08T09:53:46.114Z,14.51
2018-04-08T09:56:14.449Z,14.57
2018-04-08T09:58:42.791Z,14.64
2018-04-08T10:01:26.710Z,14.61
2018-04-08T10:03:55.040Z,14.77
2018-04-08T10:06:23.371Z,14.78
2018-04-08T10:08:51.763Z,15.45
2018-04-08T10:11:20.083Z,15.79
2018-04-08T10:13:48.457Z,15.36
2018-04-08T10:16:16.774Z,15.43
2018-04-08T10:18:45.114Z,16.25
2018-04-08T10:21:13.477Z,15.96
2018-04-08T10:23:41.810Z,16.05
2018-04-08T10:26:10.174Z,15.59
2018-04-08T10:28:38.604Z,15.62
2018-04-08T10:31:06.938Z,16.21
2018-04-08T10:33:35.276Z,16.56
2018-04-08T10:36:04.539Z,16.42
2018-04-08T10:38:32.890Z,16.10
2018-04-08T10:41:01.504Z,16.11
2018-04-08T10:43:29.974Z,16.27
2018-04-08T10:45:58.331Z,16.32
2018-04-08T10:48:26.721Z,16.49
2018-04-08T10:50:55.067Z,16.82
2018-04-08T10:53:23.425Z,17.41
2018-04-08T10:55:51.303Z,17.69
2018-04-08T10:58:19.240Z,17.29
2018-04-08T11:00:47.109Z,17.20
2018-04-08T11:03:14.856Z,17.58
2018-04-08T11:05:43.078Z,17.68
2018-04-08T11:08:11.494Z,17.51
2018-04-08T11:10:39.946Z,17.70
2018-04-08T11:13:08.293Z,18.05
2018-04-08T11:15:37.585Z,18.61
2018-04-08T11:18:05.894Z,18.29
2018-04-08T11:20:34.235Z,18.46
2018-04-08T11:23:02.717Z,18.80
2018-04-08T11:25:31.082Z,18.91
2018-04-08T11:27:59.468Z,19.23
2018-04-08T11:30:27.825Z,19.83
2018-04-08T11:32:56.138Z,20.26
2018-04-08T11:35:24.459Z,19.96
2018-04-08T11:37:52.808Z,20.32
2018-04-08T11:40:21.127Z,21.05
2018-04-08T11:42:49.466Z,20.81
2018-04-08T11:45:17.806Z,21.58
2018-04-08T11:47:46.118Z,21.53
2018-04-08T11:50:14.455Z,21.94
2018-04-08T11:52:42.812Z,22.10
2018-04-08T11:55:11.205Z,22.58
2018-04-08T11:57:39.593Z,23.17
2018-04-08T12:00:07.927Z,23.38
2018-04-08T12:02:36.251Z,23.53
2018-04-08T12:05:04.596Z,23.67
2018-04-08T12:07:33.183Z,24.56
2018-04-08T12:10:01.515Z,24.89
2018-04-08T12:12:29.827Z,24.93
2018-04-08T12:14:58.180Z,25.27
2018-04-08T12:17:26.594Z,25.48
2018-04-08T12:19:55.036Z,26.25
2018-04-08T12:22:23.443Z,26.36
2018-04-08T12:24:51.774Z,26.79
2018-04-08T12:27:20.117Z,27.26
2018-04-08T12:29:49.602Z,27.58
2018-04-08T12:32:17.906Z,27.36
2018-04-08T12:34:46.250Z,27.13
2018-04-08T12:37:14.574Z,26.80
2018-04-08T12:39:42.894Z,27.22
2018-04-08T12:42:11.223Z,27.11
2018-04-08T12:44:39.566Z,28.52
2018-04-08T12:47:07.977Z,27.96
2018-04-08T12:49:36.321Z,28.51
2018-04-08T12:52:04.733Z,28.74
2018-04-08T12:54:33.051Z,28.05
2018-04-08T12:57:01.383Z,28.09
2018-04-08T12:59:29.702Z,28.59
2018-04-08T13:01:58.130Z,29.07
2018-04-08T13:04:26.474Z,29.25
2018-04-08T13:06:54.806Z,29.05
2018-04-08T13:09:23.150Z,28.80
2018-04-08T13:11:51.517Z,28.63
2018-04-08T13:14:19.882Z,28.65
2018-04-08T13:16:48.212Z,29.51
2018-04-08T13:19:16.547Z,28.02
2018-04-08T13:21:44.877Z,28.56
2018-04-08T13:24:13.221Z,30.12
2018-04-08T13:26:41.557Z,29.69
2018-04-08T13:29:09.908Z,30.90
2018-04-08T13:31:38.267Z,28.95
2018-04-08T13:34:06.633Z,29.58
2018-04-08T13:36:34.967Z,29.88
2018-04-08T13:39:03.304Z,29.84
2018-04-08T13:41:31.654Z,30.40
2018-04-08T13:44:00.033Z,30.75
2018-04-08T13:46:28.362Z,30.70
2018-04-08T13:48:56.694Z,30.61
2018-04-08T13:51:25.115Z,30.92
2018-04-08T13:53:53.488Z,31.28
2018-04-08T13:56:21.830Z,30.70
2018-04-08T13:58:50.154Z,30.75
2018-04-08T14:01:18.490Z,30.22
2018-04-08T14:03:46.997Z,30.84
2018-04-08T14:06:15.307Z,31.31
2018-04-08T14:08:43.714Z,30.43
2018-04-08T14:11:12.059Z,31.10
2018-04-08T14:13:40.391Z,31.06
2018-04-08T14:16:08.699Z,31.51
2018-04-08T14:18:37.062Z,31.27
2018-04-08T14:21:05.405Z,31.51
2018-04-08T14:23:33.778Z,32.54
2018-04-08T14:26:02.110Z,31.83
2018-04-08T14:28:30.434Z,30.76
2018-04-08T14:30:58.758Z,30.72
2018-04-08T14:33:27.086Z,30.53
2018-04-08T14:35:55.420Z,30.47
2018-04-08T14:38:23.749Z,30.72
2018-04-08T14:40:52.136Z,30.13
2018-04-08T14:43:20.453Z,29.90
2018-04-08T14:45:48.801Z,30.74
2018-04-08T14:48:17.133Z,31.32
2018-04-08T14:50:45.467Z,30.53
2018-04-08T14:53:13.782Z,31.07
2018-04-08T14:55:42.155Z,31.25
2018-04-08T14:58:10.562Z,31.51
2018-04-08T15:00:38.899Z,32.32
2018-04-08T15:03:07.338Z,31.51
2018-04-08T15:05:35.655Z,31.36
2018-04-08T15:08:04.082Z,30.42
2018-04-08T15:10:32.448Z,30.51
2018-04-08T15:13:00.760Z,30.54
2018-04-08T15:15:29.082Z,29.54
2018-04-08T15:17:57.486Z,29.61
2018-04-08T15:20:25.870Z,29.58
2018-04-08T15:22:54.224Z,29.67
2018-04-08T15:25:22.563Z,28.91
2018-04-08T15:27:50.890Z,29.08
2018-04-08T15:30:19.241Z,29.18
2018-04-08T15:32:47.711Z,29.51
2018-04-08T15:35:16.031Z,30.28
2018-04-08T15:37:44.355Z,29.86
2018-04-08T15:40:12.790Z,29.59
2018-04-08T15:42:41.110Z,29.46
2018-04-08T15:45:09.456Z,30.02
2018-04-08T15:47:37.868Z,30.34
2018-04-08T15:50:06.211Z,28.78
2018-04-08T15:52:34.527Z,28.67
2018-04-08T15:55:02.901Z,29.20
2018-04-08T15:57:31.210Z,28.95
2018-04-08T15:59:59.557Z,28.90
2018-04-08T16:02:27.887Z,29.05
2018-04-08T16:04:56.207Z,29.40
2018-04-08T16:07:24.538Z,29.01
2018-04-08T16:09:53.003Z,28.76
2018-04-08T16:12:21.319Z,27.99
2018-04-08T16:14:49.643Z,28.26
2018-04-08T16:17:17.978Z,27.93
2018-04-08T16:19:46.321Z,27.93
2018-04-08T16:22:14.650Z,27.51
2018-04-08T16:24:42.970Z,27.41
2018-04-08T16:27:11.318Z,27.13
2018-04-08T16:29:39.656Z,26.88
2018-04-08T16:32:08.066Z,26.50
2018-04-08T16:34:36.382Z,26.54
2018-04-08T16:37:04.742Z,26.03
2018-04-08T16:39:33.072Z,26.03
2018-04-08T16:42:01.430Z,25.98
2018-04-08T16:44:29.766Z,25.85
2018-04-08T16:46:58.099Z,25.70
2018-04-08T16:49:26.481Z,24.63
2018-04-08T16:51:54.851Z,23.56
2018-04-08T16:54:23.226Z,23.39
2018-04-08T16:56:51.621Z,22.99
2018-04-08T16:59:20.009Z,22.73
2018-04-08T17:01:48.334Z,22.44
2018-04-08T17:04:16.725Z,22.34
2018-04-08T17:06:45.066Z,22.26
2018-04-08T17:09:13.418Z,22.00
2018-04-08T17:11:41.748Z,21.78
2018-04-08T17:14:10.092Z,21.21
2018-04-08T17:16:37.960Z,21.00
2018-04-08T17:19:06.176Z,20.88
2018-04-08T17:21:34.516Z,20.70
2018-04-08T17:24:02.880Z,20.53
2018-04-08T17:26:31.197Z,20.38
2018-04-08T17:28:59.541Z,20.22
2018-04-08T17:31:27.856Z,20.20
2018-04-08T17:33:56.206Z,19.98
2018-04-08T17:36:24.546Z,19.62
2018-04-08T17:38:52.868Z,19.67
2018-04-08T17:41:21.223Z,19.44
2018-04-08T17:43:49.558Z,19.41
2018-04-08T17:46:17.940Z,19.42
2018-04-08T17:48:46.312Z,19.30
2018-04-08T17:51:14.640Z,19.29
2018-04-08T17:53:43.012Z,19.14
2018-04-08T17:56:11.310Z,19.05
2018-04-08T17:58:39.746Z,18.96
2018-04-08T18:01:08.120Z,19.12
2018-04-08T18:03:36.421Z,19.01
2018-04-08T18:06:04.763Z,18.88
2018-04-08T18:08:33.080Z,18.92
2018-04-08T18:11:01.413Z,18.79
2018-04-08T18:13:29.752Z,18.75
2018-04-08T18:15:58.079Z,18.72
2018-04-08T18:18:26.391Z,18.60
2018-04-08T18:20:54.832Z,18.49
2018-04-08T18:23:23.161Z,18.41
2018-04-08T18:25:51.578Z,18.42
2018-04-08T18:28:19.960Z,18.32
2018-04-08T18:30:48.284Z,18.47
2018-04-08T18:33:16.636Z,18.34
2018-04-08T18:35:44.969Z,18.25
2018-04-08T18:38:13.294Z,18.25
2018-04-08T18:40:41.629Z,18.10
2018-04-08T18:43:09.968Z,18.06
2018-04-08T18:45:38.338Z,17.94
2018-04-08T18:48:06.665Z,17.97
2018-04-08T18:50:35.105Z,17.92
2018-04-08T18:53:03.461Z,17.86
2018-04-08T18:55:31.823Z,17.60
2018-04-08T18:58:00.174Z,17.58
2018-04-08T19:00:28.595Z,17.54
2018-04-08T19:02:56.957Z,17.55
2018-04-08T19:05:25.375Z,17.53
2018-04-08T19:07:53.697Z,17.54
2018-04-08T19:10:22.025Z,17.48
2018-04-08T19:12:50.401Z,17.45
2018-04-08T19:15:22.181Z,17.43
2018-04-08T19:17:56.279Z,17.21
2018-04-08T19:20:24.645Z,17.29
2018-04-08T19:22:52.985Z,17.36
2018-04-08T19:25:21.324Z,17.34
2018-04-08T19:27:49.758Z,17.20
2018-04-08T19:30:22.572Z,17.04
2018-04-08T19:32:50.919Z,17.00
2018-04-08T19:35:19.286Z,17.01
2018-04-08T19:37:47.675Z,16.98
2018-04-08T19:40:15.996Z,17.02
2018-04-08T19:42:44.418Z,16.88
2018-04-08T19:45:12.775Z,16.83
2018-04-08T19:47:41.126Z,16.73
2018-04-08T19:50:09.561Z,16.68
2018-04-08T19:52:37.918Z,16.74
2018-04-08T19:55:06.265Z,16.65
2018-04-08T19:57:35.347Z,16.51
2018-04-08T20:00:03.756Z,16.55
2018-04-08T20:02:32.170Z,16.52
2018-04-08T20:05:00.541Z,16.33
2018-04-08T20:07:28.922Z,16.34
2018-04-08T20:09:57.241Z,16.32
2018-04-08T20:12:25.582Z,16.39
2018-04-08T20:14:53.951Z,16.39
2018-04-08T20:17:22.331Z,16.25
2018-04-08T20:19:50.707Z,16.16
2018-04-08T20:22:19.105Z,16.06
2018-04-08T20:24:47.459Z,16.03
2018-04-08T20:27:15.811Z,16.09
2018-04-08T20:29:44.147Z,16.04
2018-04-08T20:32:12.598Z,16.06
2018-04-08T20:34:40.932Z,15.90
2018-04-08T20:37:09.406Z,15.66
2018-04-08T20:39:37.732Z,15.74
2018-04-08T20:42:06.054Z,15.59
2018-04-08T20:44:34.498Z,15.37
2018-04-08T20:47:02.816Z,15.37
2018-04-08T20:49:31.287Z,15.30
2018-04-08T20:51:59.625Z,15.43
2018-04-08T20:54:28.002Z,15.36
2018-04-08T20:56:56.387Z,15.40
2018-04-08T20:59:24.733Z,15.26
2018-04-08T21:01:53.052Z,15.13
2018-04-08T21:04:21.448Z,15.21
2018-04-08T21:06:49.835Z,15.00
2018-04-08T21:09:18.267Z,15.11
2018-04-08T21:11:46.648Z,15.00
2018-04-08T21:14:15.035Z,14.69
2018-04-08T21:16:43.364Z,14.56
2018-04-08T21:19:11.708Z,14.42
2018-04-08T21:21:39.566Z,14.45
2018-04-08T21:24:07.825Z,14.55
2018-04-08T21:26:36.141Z,14.34
2018-04-08T21:29:04.485Z,14.38
2018-04-08T21:31:32.811Z,14.24
2018-04-08T21:34:02.005Z,14.28
2018-04-08T21:36:30.325Z,14.02
2018-04-08T21:38:58.722Z,14.01
2018-04-08T21:41:27.171Z,14.14
2018-04-08T21:43:55.490Z,14.12
2018-04-08T21:46:23.959Z,13.97
2018-04-08T21:48:52.300Z,13.84
2018-04-08T21:51:20.634Z,13.86
2018-04-08T21:53:48.958Z,13.55
2018-04-08T21:56:17.378Z,13.63
2018-04-08T21:58:45.678Z,13.71
2018-04-08T22:01:14.815Z,13.65
2018-04-08T22:03:43.210Z,13.66
2018-04-08T22:06:11.587Z,13.72
2018-04-08T22:08:39.920Z,13.64
2018-04-08T22:11:08.352Z,13.69
2018-04-08T22:13:36.681Z,13.67
2018-04-08T22:16:05.039Z,13.31
2018-04-08T22:18:33.362Z,13.33
2018-04-08T22:21:01.763Z,13.48
2018-04-08T22:23:30.098Z,13.45
2018-04-08T22:25:58.506Z,13.43
2018-04-08T22:28:26.835Z,13.28
2018-04-08T22:30:55.277Z,13.06
2018-04-08T22:33:23.836Z,12.98
2018-04-08T22:35:52.273Z,13.05
2018-04-08T22:38:20.578Z,12.89
2018-04-08T22:40:49.028Z,13.14
2018-04-08T22:43:17.370Z,13.19
2018-04-08T22:45:45.731Z,13.19
2018-04-08T22:48:14.050Z,13.17
2018-04-08T22:50:42.372Z,13.16
2018-04-08T22:53:10.733Z,12.97
2018-04-08T22:55:39.054Z,12.78
2018-04-08T22:58:07.429Z,12.84
2018-04-08T23:00:35.759Z,12.82
2018-04-08T23:03:04.103Z,12.57
2018-04-08T23:05:37.538Z,12.25
2018-04-08T23:08:06.126Z,12.42
2018-04-08T23:10:34.447Z,12.13
2018-04-08T23:13:02.800Z,11.95
2018-04-08T23:15:31.207Z,11.88
2018-04-08T23:17:59.579Z,11.98
2018-04-08T23:20:27.918Z,12.23
2018-04-08T23:22:56.269Z,12.19
2018-04-08T23:25:24.582Z,12.11
2018-04-08T23:27:52.930Z,12.00
2018-04-08T23:30:21.251Z,12.05
2018-04-08T23:32:49.594Z,12.05
2018-04-08T23:35:17.922Z,12.28
2018-04-08T23:37:46.270Z,12.29
2018-04-08T23:40:14.606Z,12.19
2018-04-08T23:42:42.997Z,12.15
2018-04-08T23:45:11.324Z,12.19
2018-04-08T23:47:39.708Z,11.91
2018-04-08T23:50:08.070Z,11.74
2018-04-08T23:52:36.469Z,11.73
2018-04-08T23:55:04.847Z,11.67
2018-04-08T23:57:33.459Z,12.00
